LFKF Airport Information

Runway Information
Runway 05 Length 8136 ft width 148 ft
Elevation 40 ft Threshold 0 ft Heading 48
Runway 23 Length 8136 ft Width 148 ft
Elevation 86 ft Threshold 0 ft Heading 228
Airport Frequencies
Type ATIS Name FIGARI INF Frequency 118.725 MHZ
Type GND Name FIGARI GND Frequency 121.8 MHZ
Type TWR Name FIGARI TWR Frequency 120.3 MHZ
Airport Navaids
Type VOR-DME Name Figari Frequency 116700 KHZ
Airport Weather Information & NOTAM
ADDS - METARS form results

(1747 UTC 20 October 2020)
Data provider http://aviationweather.gov/metar/data/
 
METAR text: LFKF 201730Z AUTO 06011KT 9999 FEW031 16/13 Q1023 NOSIG
Conditions at: LFKF (FIGARI (AUT) , FR) observed 1730 UTC 20 October 2020
Temperature: 16.0°C (61°F)
Dewpoint: 13.0°C (55°F) [RH = 82%]
Pressure (altimeter): 30.21 inches Hg (1023.0 mb)
Winds: from the ENE (60 degrees) at 13 MPH (11 knots; 5.7 m/s)
Visibility: 6 or more miles (10+ km)
Ceiling: at least 12,000 feet AGL
Clouds: few clouds at 3100 feet AGL
Weather: no significant weather observed at this time

METAR text: LFKF 201700Z AUTO 06010KT 9999 FEW024 16/13 Q1023 NOSIG
Conditions at: LFKF (FIGARI (AUT) , FR) observed 1700 UTC 20 October 2020
Temperature: 16.0°C (61°F)
Dewpoint: 13.0°C (55°F) [RH = 82%]
Pressure (altimeter): 30.21 inches Hg (1023.0 mb)
Winds: from the ENE (60 degrees) at 12 MPH (10 knots; 5.1 m/s)
Visibility: 6 or more miles (10+ km)
Ceiling: at least 12,000 feet AGL
Clouds: few clouds at 2400 feet AGL
Weather: no significant weather observed at this time

Forecast for: LFKF (FIGARI (AUT) , FR)
Text: TAF LFKF 201400Z 2015/2115 07010KT 9999 BKN040
Forecast period: 1500 UTC 20 October 2020 to 1500 UTC 21 October 2020
Forecast type: FROM: standard forecast or significant change
Winds: from the ENE (70 degrees) at 12 MPH (10 knots; 5.1 m/s)
Visibility: 6 or more miles (10+ km)
Ceiling: 4000 feet AGL
Clouds: broken clouds at 4000 feet AGL
Weather: no significant weather forecast for this period
Text: TEMPO 2103/2115 07015G25KT
Forecast period: 0300 to 1500 UTC 21 October 2020
Forecast type: TEMPORARY: The following changes expected for less than half the time period
Winds: from the ENE (70 degrees) at 17 MPH (15 knots; 7.7 m/s)
gusting to 29 MPH (25 knots; 12.9 m/s)
Visibility: missing
Ceiling: unknown
Clouds: missing
Weather: no significant weather forecast for this period